createdAt,value
2017-09-23T00:01:59.123Z,94.90
2017-09-23T00:04:26.626Z,94.80
2017-09-23T00:06:54.180Z,94.90
2017-09-23T00:09:21.673Z,95.00
2017-09-23T00:11:50.511Z,95.10
2017-09-23T00:14:18.071Z,95.00
2017-09-23T00:16:46.403Z,95.20
2017-09-23T00:19:14.615Z,95.20
2017-09-23T00:21:42.511Z,95.20
2017-09-23T00:24:10.035Z,95.20
2017-09-23T00:26:39.287Z,95.30
2017-09-23T00:29:06.870Z,95.30
2017-09-23T00:31:34.399Z,95.30
2017-09-23T00:34:02.340Z,95.30
2017-09-23T00:36:30.647Z,95.30
2017-09-23T00:38:58.388Z,95.30
2017-09-23T00:41:25.919Z,95.30
2017-09-23T00:43:54.285Z,95.50
2017-09-23T00:46:21.873Z,95.50
2017-09-23T00:48:49.380Z,95.50
2017-09-23T00:51:17.524Z,95.40
2017-09-23T00:53:45.140Z,95.50
2017-09-23T00:56:13.413Z,95.60
2017-09-23T00:58:41.382Z,95.60
2017-09-23T01:01:09.250Z,95.70
2017-09-23T01:03:36.746Z,95.70
2017-09-23T01:06:04.287Z,95.70
2017-09-23T01:08:31.843Z,95.60
2017-09-23T01:11:03.022Z,95.50
2017-09-23T01:13:31.455Z,95.50
2017-09-23T01:15:58.990Z,95.60
2017-09-23T01:18:26.491Z,95.60
2017-09-23T01:20:54.358Z,95.50
2017-09-23T01:23:21.946Z,95.60
2017-09-23T01:25:50.399Z,95.70
2017-09-23T01:28:17.911Z,95.80
2017-09-23T01:30:45.451Z,95.80
2017-09-23T01:33:13.051Z,95.70
2017-09-23T01:35:40.647Z,95.70
2017-09-23T01:38:08.157Z,95.40
2017-09-23T01:40:35.671Z,95.50
2017-09-23T01:43:10.760Z,95.60
2017-09-23T01:45:38.263Z,95.80
2017-09-23T01:48:05.801Z,96.10
2017-09-23T01:50:33.685Z,96.30
2017-09-23T01:53:01.231Z,96.30
2017-09-23T01:55:29.563Z,96.30
2017-09-23T01:57:57.597Z,96.20
2017-09-23T02:00:25.194Z,95.90
2017-09-23T02:02:53.123Z,95.90
2017-09-23T02:05:20.623Z,95.90
2017-09-23T02:07:48.163Z,95.90
2017-09-23T02:10:15.673Z,95.80
2017-09-23T02:12:44.250Z,95.30
2017-09-23T02:15:17.178Z,95.40
2017-09-23T02:17:44.688Z,95.30
2017-09-23T02:20:12.231Z,95.50
2017-09-23T02:22:39.799Z,95.70
2017-09-23T02:25:08.274Z,95.80
2017-09-23T02:27:40.319Z,95.90
2017-09-23T02:30:07.810Z,95.90
2017-09-23T02:32:35.304Z,95.80
2017-09-23T02:35:03.592Z,95.60
2017-09-23T02:37:31.124Z,95.50
2017-09-23T02:39:59.429Z,95.30
2017-09-23T02:42:31.182Z,95.20
2017-09-23T02:44:58.670Z,95.30
2017-09-23T02:47:26.240Z,95.30
2017-09-23T02:49:53.792Z,95.30
2017-09-23T02:52:21.288Z,95.20
2017-09-23T02:54:48.903Z,95.30
2017-09-23T02:57:16.799Z,95.40
2017-09-23T02:59:44.316Z,95.60
2017-09-23T03:02:12.191Z,95.70
2017-09-23T03:04:39.736Z,95.70
2017-09-23T03:07:07.240Z,95.60
2017-09-23T03:09:34.755Z,95.60
2017-09-23T03:12:02.482Z,95.60
2017-09-23T03:14:29.973Z,95.50
2017-09-23T03:16:58.410Z,95.60
2017-09-23T03:19:26.095Z,95.50
2017-09-23T03:21:53.631Z,95.50
2017-09-23T03:24:21.934Z,95.50
2017-09-23T03:26:49.487Z,95.50
2017-09-23T03:29:17.578Z,95.40
2017-09-23T03:31:45.543Z,95.60
2017-09-23T03:34:13.081Z,95.20
2017-09-23T03:36:40.661Z,95.20
2017-09-23T03:39:08.176Z,95.10
2017-09-23T03:41:35.711Z,95.00
2017-09-23T03:44:03.211Z,94.90
2017-09-23T03:46:34.906Z,94.80
2017-09-23T03:49:02.423Z,94.70
2017-09-23T03:51:30.732Z,94.80
2017-09-23T03:53:59.191Z,94.80
2017-09-23T03:56:27.463Z,94.80
2017-09-23T03:58:59.248Z,94.80
2017-09-23T04:01:27.527Z,94.80
2017-09-23T04:03:55.062Z,94.80
2017-09-23T04:06:22.555Z,94.80
2017-09-23T04:08:50.100Z,94.80
2017-09-23T04:11:18.732Z,94.90
2017-09-23T04:13:46.276Z,94.90
2017-09-23T04:16:13.782Z,95.00
2017-09-23T04:18:41.302Z,95.10
2017-09-23T04:21:08.852Z,95.10
2017-09-23T04:23:36.356Z,95.10
2017-09-23T04:26:04.674Z,95.00
2017-09-23T04:28:33.343Z,95.00
2017-09-23T04:31:08.736Z,95.00
2017-09-23T04:33:36.311Z,94.90
2017-09-23T04:36:04.635Z,94.60
2017-09-23T04:38:32.187Z,94.60
2017-09-23T04:40:59.681Z,94.60
2017-09-23T04:43:28.575Z,94.40
2017-09-23T04:45:56.078Z,94.20
2017-09-23T04:48:23.695Z,94.20
2017-09-23T04:50:51.231Z,94.40
2017-09-23T04:53:18.736Z,94.50
2017-09-23T04:55:47.961Z,94.40
2017-09-23T04:58:15.673Z,94.40
2017-09-23T05:00:43.224Z,94.30
2017-09-23T05:03:11.003Z,94.30
2017-09-23T05:05:38.533Z,94.30
2017-09-23T05:08:06.796Z,94.30
2017-09-23T05:10:34.343Z,94.20
2017-09-23T05:13:01.903Z,94.10
2017-09-23T05:15:36.878Z,94.00
2017-09-23T05:18:04.424Z,94.00
2017-09-23T05:20:31.932Z,94.10
2017-09-23T05:22:59.480Z,94.10
2017-09-23T05:25:27.258Z,94.10
2017-09-23T05:27:54.801Z,94.00
2017-09-23T05:30:30.788Z,93.80
2017-09-23T05:32:58.291Z,93.80
2017-09-23T05:35:25.863Z,93.80
2017-09-23T05:37:53.363Z,93.80
2017-09-23T05:40:20.866Z,93.70
2017-09-23T05:42:48.395Z,93.80
2017-09-23T05:45:15.943Z,93.60
2017-09-23T05:47:43.866Z,93.60
2017-09-23T05:50:11.359Z,93.50
2017-09-23T05:52:38.901Z,93.40
2017-09-23T05:55:07.184Z,93.40
2017-09-23T05:57:34.734Z,93.40
2017-09-23T06:00:03.043Z,93.20
2017-09-23T06:02:30.711Z,93.20
2017-09-23T06:04:58.257Z,92.50
2017-09-23T06:07:25.986Z,92.30
2017-09-23T06:09:53.786Z,92.00
2017-09-23T06:12:21.318Z,91.80
2017-09-23T06:14:49.595Z,91.70
2017-09-23T06:17:17.144Z,91.60
2017-09-23T06:19:45.465Z,91.20
2017-09-23T06:22:13.215Z,91.20
2017-09-23T06:24:40.737Z,91.20
2017-09-23T06:27:08.311Z,91.10
2017-09-23T06:29:35.818Z,91.20
2017-09-23T06:32:11.473Z,91.40
2017-09-23T06:34:39.023Z,91.20
2017-09-23T06:37:06.539Z,91.00
2017-09-23T06:39:34.438Z,90.80
2017-09-23T06:42:01.938Z,90.30
2017-09-23T06:44:29.597Z,89.80
2017-09-23T06:47:00.872Z,89.70
2017-09-23T06:49:28.371Z,89.00
2017-09-23T06:51:56.025Z,89.10
2017-09-23T06:54:23.567Z,89.40
2017-09-23T06:56:51.092Z,89.20
2017-09-23T06:59:18.647Z,90.00
2017-09-23T07:01:49.449Z,90.00
2017-09-23T07:04:16.976Z,89.90
2017-09-23T07:06:45.273Z,88.80
2017-09-23T07:09:12.824Z,89.40
2017-09-23T07:11:40.331Z,88.70
2017-09-23T07:14:08.665Z,88.70
2017-09-23T07:16:36.247Z,88.70
2017-09-23T07:19:03.850Z,88.50
2017-09-23T07:21:33.063Z,88.80
2017-09-23T07:24:00.624Z,88.70
2017-09-23T07:26:28.199Z,88.90
2017-09-23T07:28:55.761Z,88.80
2017-09-23T07:31:23.294Z,89.40
2017-09-23T07:33:51.768Z,89.20
2017-09-23T07:36:19.318Z,88.40
2017-09-23T07:38:46.890Z,87.80
2017-09-23T07:41:15.176Z,85.10
2017-09-23T07:43:42.686Z,85.00
2017-09-23T07:46:11.102Z,83.60
2017-09-23T07:48:39.412Z,81.20
2017-09-23T07:51:06.973Z,81.10
2017-09-23T07:53:34.879Z,79.70
2017-09-23T07:56:02.399Z,78.30
2017-09-23T07:58:30.232Z,76.90
2017-09-23T08:00:58.516Z,76.30
2017-09-23T08:03:30.520Z,74.50
2017-09-23T08:05:58.828Z,74.20
2017-09-23T08:08:26.451Z,74.20
2017-09-23T08:10:54.464Z,74.10
2017-09-23T08:13:21.984Z,73.80
2017-09-23T08:15:50.343Z,72.20
2017-09-23T08:18:17.855Z,72.10
2017-09-23T08:20:45.405Z,72.40
2017-09-23T08:23:13.958Z,72.20
2017-09-23T08:25:41.517Z,72.20
2017-09-23T08:28:09.047Z,72.30
2017-09-23T08:30:36.625Z,72.50
2017-09-23T08:33:04.145Z,72.70
2017-09-23T08:35:33.671Z,73.20
2017-09-23T08:38:01.245Z,73.20
2017-09-23T08:40:28.815Z,73.70
2017-09-23T08:42:56.341Z,74.30
2017-09-23T08:45:23.947Z,74.20
2017-09-23T08:47:52.490Z,74.60
2017-09-23T08:50:20.052Z,74.60
2017-09-23T08:52:47.579Z,74.90
2017-09-23T08:55:15.161Z,75.00
2017-09-23T08:57:42.957Z,74.30
2017-09-23T09:00:10.512Z,74.20
2017-09-23T09:02:38.077Z,73.80
2017-09-23T09:05:06.511Z,74.50
2017-09-23T09:07:34.570Z,73.40
2017-09-23T09:10:02.127Z,72.70
2017-09-23T09:12:29.758Z,72.70
2017-09-23T09:14:57.269Z,72.30
2017-09-23T09:17:25.679Z,72.00
2017-09-23T09:19:53.205Z,72.40
2017-09-23T09:22:21.484Z,72.30
2017-09-23T09:24:50.719Z,71.30
2017-09-23T09:27:18.296Z,71.20
2017-09-23T09:29:45.951Z,71.20
2017-09-23T09:32:13.479Z,70.80
2017-09-23T09:34:44.325Z,68.50
2017-09-23T09:37:11.839Z,68.30
2017-09-23T09:39:39.726Z,67.40
2017-09-23T09:42:08.155Z,66.80
2017-09-23T09:44:35.751Z,66.80
2017-09-23T09:47:04.978Z,66.80
2017-09-23T09:49:35.728Z,66.70
2017-09-23T09:52:03.844Z,66.30
2017-09-23T09:54:31.415Z,66.50
2017-09-23T09:57:00.135Z,66.00
2017-09-23T09:59:27.665Z,65.10
2017-09-23T10:01:55.211Z,65.50
2017-09-23T10:04:22.758Z,64.40
2017-09-23T10:06:50.269Z,63.70
2017-09-23T10:09:18.864Z,63.60
2017-09-23T10:11:47.227Z,64.00
2017-09-23T10:14:14.919Z,63.10
2017-09-23T10:16:44.006Z,63.00
2017-09-23T10:19:12.043Z,63.00
2017-09-23T10:21:39.644Z,63.40
2017-09-23T10:24:08.079Z,63.10
2017-09-23T10:26:35.596Z,62.00
2017-09-23T10:29:03.131Z,60.30
2017-09-23T10:31:30.689Z,60.30
2017-09-23T10:33:58.353Z,61.40
2017-09-23T10:36:26.378Z,61.30
2017-09-23T10:38:54.707Z,59.80
2017-09-23T10:41:22.295Z,59.80
2017-09-23T10:43:49.825Z,60.10
2017-09-23T10:46:17.384Z,59.20
2017-09-23T10:48:44.897Z,59.90
2017-09-23T10:51:13.192Z,62.00
2017-09-23T10:53:41.848Z,62.80
2017-09-23T10:56:10.386Z,62.30
2017-09-23T10:58:37.896Z,62.30
2017-09-23T11:01:05.610Z,62.10
2017-09-23T11:03:33.146Z,60.60
2017-09-23T11:06:00.852Z,61.00
2017-09-23T11:08:28.438Z,60.00
2017-09-23T11:10:55.975Z,60.00
2017-09-23T11:13:24.407Z,61.50
2017-09-23T11:15:51.976Z,61.90
2017-09-23T11:18:19.499Z,60.40
2017-09-23T11:20:47.017Z,60.40
2017-09-23T11:23:14.574Z,61.10
2017-09-23T11:25:42.291Z,60.40
2017-09-23T11:28:09.873Z,59.50
2017-09-23T11:30:37.535Z,60.80
2017-09-23T11:33:05.070Z,60.10
2017-09-23T11:35:33.078Z,60.10
2017-09-23T11:38:00.630Z,59.90
2017-09-23T11:40:28.571Z,60.40
2017-09-23T11:42:56.090Z,60.40
2017-09-23T11:45:24.128Z,60.50
2017-09-23T11:47:52.100Z,60.90
2017-09-23T11:50:19.984Z,60.10
2017-09-23T11:52:50.836Z,59.80
2017-09-23T11:55:18.478Z,60.00
2017-09-23T11:57:46.917Z,59.40
2017-09-23T12:00:14.528Z,58.30
2017-09-23T12:02:42.507Z,58.10
2017-09-23T12:05:10.016Z,58.30
2017-09-23T12:07:41.068Z,59.20
2017-09-23T12:10:08.680Z,57.80
2017-09-23T12:12:36.459Z,57.00
2017-09-23T12:15:04.331Z,55.40
2017-09-23T12:17:31.915Z,55.20
2017-09-23T12:19:59.909Z,55.10
2017-09-23T12:22:27.415Z,54.40
2017-09-23T12:24:56.679Z,54.60
2017-09-23T12:27:24.216Z,54.60
2017-09-23T12:29:51.905Z,54.30
2017-09-23T12:32:19.416Z,54.50
2017-09-23T12:34:46.943Z,53.20
2017-09-23T12:37:19.475Z,53.20
2017-09-23T12:39:46.984Z,53.60
2017-09-23T12:42:16.228Z,51.70
2017-09-23T12:44:44.288Z,51.70
2017-09-23T12:47:11.790Z,52.80
2017-09-23T12:49:40.243Z,52.00
2017-09-23T12:52:07.788Z,51.70
2017-09-23T12:54:35.286Z,49.60
2017-09-23T12:57:02.846Z,50.30
2017-09-23T12:59:30.370Z,50.70
2017-09-23T13:01:57.875Z,49.80
2017-09-23T13:04:25.786Z,48.20
2017-09-23T13:06:53.671Z,49.00
2017-09-23T13:09:28.614Z,49.60
2017-09-23T13:11:56.114Z,48.90
2017-09-23T13:14:23.618Z,49.10
2017-09-23T13:16:51.159Z,48.90
2017-09-23T13:19:19.087Z,48.40
2017-09-23T13:21:46.638Z,49.20
2017-09-23T13:24:14.191Z,48.40
2017-09-23T13:26:42.092Z,47.40
2017-09-23T13:29:09.635Z,48.10
2017-09-23T13:31:38.856Z,49.70
2017-09-23T13:34:06.412Z,49.60
2017-09-23T13:36:34.678Z,49.40
2017-09-23T13:39:03.089Z,49.40
2017-09-23T13:41:30.647Z,49.60
2017-09-23T13:43:58.699Z,49.50
2017-09-23T13:46:26.202Z,48.10
2017-09-23T13:48:53.751Z,48.90
2017-09-23T13:51:21.942Z,48.80
2017-09-23T13:53:49.712Z,49.20
2017-09-23T13:56:17.311Z,49.60
2017-09-23T13:58:44.831Z,49.90
2017-09-23T14:01:13.295Z,49.80
2017-09-23T14:03:41.395Z,49.20
2017-09-23T14:06:09.720Z,49.50
2017-09-23T14:08:37.272Z,49.50
2017-09-23T14:11:06.491Z,49.50
2017-09-23T14:13:34.044Z,49.50
2017-09-23T14:16:01.563Z,49.50
2017-09-23T14:18:29.419Z,49.80
2017-09-23T14:20:56.939Z,50.10
2017-09-23T14:23:25.610Z,52.90
2017-09-23T14:25:54.215Z,52.80
2017-09-23T14:28:22.046Z,54.50
2017-09-23T14:30:49.666Z,55.10
2017-09-23T14:33:17.389Z,54.50
2017-09-23T14:35:44.927Z,55.30
2017-09-23T14:38:12.467Z,55.50
2017-09-23T14:40:43.793Z,57.00
2017-09-23T14:43:11.373Z,57.00
2017-09-23T14:45:39.151Z,56.40
2017-09-23T14:48:06.662Z,57.40
2017-09-23T14:50:34.497Z,57.60
2017-09-23T14:53:02.003Z,57.80
2017-09-23T14:55:30.272Z,58.40
2017-09-23T14:57:57.975Z,58.00
2017-09-23T15:00:25.515Z,58.50
2017-09-23T15:02:53.789Z,59.30
2017-09-23T15:05:21.339Z,59.20
2017-09-23T15:07:49.307Z,59.30
2017-09-23T15:10:18.449Z,59.10
2017-09-23T15:12:45.955Z,57.60
2017-09-23T15:15:14.597Z,58.70
2017-09-23T15:17:42.203Z,58.70
2017-09-23T15:20:09.710Z,59.50
2017-09-23T15:22:37.476Z,60.20
2017-09-23T15:25:04.983Z,60.90
2017-09-23T15:27:32.542Z,61.00
2017-09-23T15:30:00.069Z,61.50
2017-09-23T15:32:27.584Z,62.10
2017-09-23T15:34:55.859Z,62.20
2017-09-23T15:37:24.308Z,61.70
2017-09-23T15:39:51.810Z,61.70
2017-09-23T15:42:23.280Z,61.80
2017-09-23T15:44:51.627Z,60.60
2017-09-23T15:47:19.178Z,60.60
2017-09-23T15:49:47.488Z,60.80
2017-09-23T15:52:16.147Z,60.80
2017-09-23T15:54:43.753Z,60.80
2017-09-23T15:57:11.353Z,60.50
2017-09-23T15:59:38.860Z,61.30
2017-09-23T16:02:06.403Z,61.10
2017-09-23T16:04:35.595Z,61.60
2017-09-23T16:07:03.101Z,61.60
2017-09-23T16:09:30.680Z,61.70
2017-09-23T16:12:05.891Z,62.00
2017-09-23T16:14:33.442Z,62.20
2017-09-23T16:17:01.057Z,61.20
2017-09-23T16:19:28.610Z,61.20
2017-09-23T16:21:56.732Z,61.40
2017-09-23T16:24:24.849Z,62.20
2017-09-23T16:26:55.624Z,61.90
2017-09-23T16:29:23.141Z,62.70
2017-09-23T16:31:50.724Z,62.50
2017-09-23T16:34:18.240Z,63.10
2017-09-23T16:36:45.762Z,63.40
2017-09-23T16:39:13.671Z,63.90
2017-09-23T16:41:41.535Z,64.30
2017-09-23T16:44:16.134Z,64.80
2017-09-23T16:46:43.678Z,65.70
2017-09-23T16:49:11.343Z,65.40
2017-09-23T16:51:39.004Z,65.80
2017-09-23T16:54:06.759Z,66.20
2017-09-23T16:56:38.004Z,66.90
2017-09-23T16:59:05.514Z,67.40
2017-09-23T17:01:34.003Z,67.90
2017-09-23T17:04:01.525Z,68.60
2017-09-23T17:06:29.042Z,69.10
2017-09-23T17:08:56.590Z,69.60
2017-09-23T17:11:24.894Z,71.00
2017-09-23T17:13:56.668Z,71.00
2017-09-23T17:16:24.415Z,71.40
2017-09-23T17:18:51.970Z,71.90
2017-09-23T17:21:19.478Z,72.10
2017-09-23T17:23:47.912Z,72.50
2017-09-23T17:26:15.468Z,73.40
2017-09-23T17:28:42.975Z,73.70
2017-09-23T17:31:11.027Z,73.60
2017-09-23T17:33:38.614Z,74.90
2017-09-23T17:36:06.483Z,74.70
2017-09-23T17:38:34.066Z,75.10
2017-09-23T17:41:01.782Z,75.10
2017-09-23T17:43:29.307Z,75.70
2017-09-23T17:45:56.851Z,76.30
2017-09-23T17:48:24.474Z,76.50
2017-09-23T17:50:52.206Z,77.00
2017-09-23T17:53:19.734Z,77.30
2017-09-23T17:55:48.041Z,78.40
2017-09-23T17:58:15.606Z,78.40
2017-09-23T18:00:43.159Z,78.60
2017-09-23T18:03:10.675Z,79.10
2017-09-23T18:05:38.227Z,79.30
2017-09-23T18:08:05.740Z,79.50
2017-09-23T18:10:34.273Z,80.20
2017-09-23T18:13:05.468Z,81.50
2017-09-23T18:15:33.499Z,82.10
2017-09-23T18:18:01.883Z,83.30
2017-09-23T18:20:29.586Z,83.20
2017-09-23T18:22:57.136Z,82.90
2017-09-23T18:25:24.643Z,82.80
2017-09-23T18:27:52.378Z,84.00
2017-09-23T18:30:19.968Z,84.90
2017-09-23T18:32:49.215Z,85.60
2017-09-23T18:35:16.879Z,85.60
2017-09-23T18:37:44.456Z,85.40
2017-09-23T18:40:12.150Z,86.20
2017-09-23T18:42:39.760Z,87.00
2017-09-23T18:45:08.825Z,87.80
2017-09-23T18:47:36.396Z,87.80
2017-09-23T18:50:04.059Z,88.80
2017-09-23T18:52:32.639Z,89.90
2017-09-23T18:55:00.960Z,90.40
2017-09-23T18:57:29.008Z,90.40
2017-09-23T18:59:58.270Z,90.90
2017-09-23T19:02:27.629Z,91.00
2017-09-23T19:04:55.597Z,90.90
2017-09-23T19:07:23.209Z,91.10
2017-09-23T19:09:50.719Z,91.10
2017-09-23T19:12:18.266Z,91.00
2017-09-23T19:14:46.703Z,91.00
2017-09-23T19:17:16.060Z,91.00
2017-09-23T19:19:43.634Z,91.00
2017-09-23T19:22:11.218Z,91.00
2017-09-23T19:24:38.842Z,90.90
2017-09-23T19:27:06.411Z,91.00
2017-09-23T19:29:34.022Z,91.10
2017-09-23T19:32:01.535Z,91.30
2017-09-23T19:34:29.094Z,91.40
2017-09-23T19:36:57.652Z,91.50
2017-09-23T19:39:25.180Z,91.50
2017-09-23T19:41:52.791Z,91.50
2017-09-23T19:44:20.667Z,91.60
2017-09-23T19:46:48.179Z,91.60
2017-09-23T19:49:15.723Z,91.60
2017-09-23T19:51:45.131Z,91.80
2017-09-23T19:54:12.678Z,91.80
2017-09-23T19:56:40.223Z,91.80
2017-09-23T19:59:09.476Z,92.10
2017-09-23T20:01:37.024Z,92.00
2017-09-23T20:04:04.578Z,92.20
2017-09-23T20:06:32.090Z,92.30
2017-09-23T20:08:59.619Z,92.40
2017-09-23T20:11:28.098Z,92.40
2017-09-23T20:13:55.618Z,92.60
2017-09-23T20:16:23.196Z,92.60
2017-09-23T20:18:50.759Z,92.70
2017-09-23T20:21:18.275Z,92.70
2017-09-23T20:23:45.823Z,92.90
2017-09-23T20:26:13.348Z,93.10
2017-09-23T20:28:41.663Z,93.20
2017-09-23T20:31:09.187Z,93.10
2017-09-23T20:33:36.699Z,93.00
2017-09-23T20:36:05.016Z,93.10
2017-09-23T20:38:32.532Z,93.10
2017-09-23T20:41:01.747Z,92.60
2017-09-23T20:43:29.302Z,92.90
2017-09-23T20:45:57.238Z,92.40
2017-09-23T20:48:26.266Z,92.40
2017-09-23T20:50:53.820Z,92.30
2017-09-23T20:53:21.331Z,92.50
2017-09-23T20:55:48.892Z,92.50
2017-09-23T20:58:16.461Z,92.60
2017-09-23T21:00:44.020Z,92.70
2017-09-23T21:03:12.401Z,93.00
2017-09-23T21:05:40.271Z,93.00
2017-09-23T21:08:07.859Z,93.00
2017-09-23T21:10:36.130Z,93.10
2017-09-23T21:13:04.843Z,93.10
2017-09-23T21:15:33.209Z,93.00
2017-09-23T21:18:04.415Z,93.00
2017-09-23T21:20:31.959Z,93.10
2017-09-23T21:22:59.462Z,93.00
2017-09-23T21:25:27.780Z,92.90
2017-09-23T21:27:55.291Z,92.90
2017-09-23T21:30:23.472Z,93.00
2017-09-23T21:32:54.942Z,92.80
2017-09-23T21:35:22.505Z,92.80
2017-09-23T21:37:50.035Z,92.70
2017-09-23T21:40:19.243Z,92.70
2017-09-23T21:42:46.798Z,92.70
2017-09-23T21:45:14.337Z,92.60
2017-09-23T21:47:41.855Z,92.70
2017-09-23T21:50:09.419Z,92.90
2017-09-23T21:52:38.619Z,92.70
2017-09-23T21:55:06.175Z,92.70
2017-09-23T21:57:34.106Z,92.70
2017-09-23T22:00:02.476Z,92.70
2017-09-23T22:02:33.671Z,92.90
2017-09-23T22:05:01.218Z,92.90
2017-09-23T22:07:28.851Z,93.00
2017-09-23T22:09:56.372Z,93.10
2017-09-23T22:12:24.071Z,93.00
2017-09-23T22:14:52.745Z,93.00
2017-09-23T22:17:20.544Z,93.00
2017-09-23T22:19:48.088Z,93.00
2017-09-23T22:22:16.628Z,93.00
2017-09-23T22:24:44.187Z,93.00
2017-09-23T22:27:11.907Z,93.00
2017-09-23T22:29:39.419Z,93.10
2017-09-23T22:32:07.703Z,93.40
2017-09-23T22:34:40.112Z,93.10
2017-09-23T22:37:07.694Z,93.00
2017-09-23T22:39:36.120Z,92.90
2017-09-23T22:42:03.632Z,92.90
2017-09-23T22:44:31.166Z,92.80
2017-09-23T22:46:58.699Z,92.70
2017-09-23T22:49:26.256Z,92.80
2017-09-23T22:51:53.816Z,92.90
2017-09-23T22:54:21.326Z,93.00
2017-09-23T22:56:49.370Z,92.90
2017-09-23T22:59:16.920Z,93.10
2017-09-23T23:01:44.651Z,93.10
2017-09-23T23:04:12.975Z,93.70
2017-09-23T23:06:40.479Z,93.70
2017-09-23T23:09:07.987Z,93.80
2017-09-23T23:11:35.651Z,94.00
2017-09-23T23:14:03.484Z,94.10
2017-09-23T23:16:31.770Z,94.50
2017-09-23T23:19:03.051Z,94.50
2017-09-23T23:21:30.589Z,94.50
2017-09-23T23:23:58.298Z,94.70
2017-09-23T23:26:25.847Z,94.80
2017-09-23T23:28:53.351Z,94.80
2017-09-23T23:31:20.902Z,94.90
2017-09-23T23:33:49.804Z,94.90
2017-09-23T23:36:18.153Z,94.90
2017-09-23T23:38:45.969Z,95.00
2017-09-23T23:41:13.479Z,95.10
2017-09-23T23:43:41.016Z,95.20
2017-09-23T23:46:09.454Z,95.30
2017-09-23T23:48:36.954Z,95.40
2017-09-23T23:51:04.487Z,95.40
2017-09-23T23:53:32.049Z,95.30
2017-09-23T23:55:59.721Z,95.10
2017-09-23T23:58:27.278Z,94.70
